TRLO2: Red River Nr Terral, OK

Data processed at Fri Jan 05 2018 23:07


All information presented herein is the property of the government of the United States of America and may be revised or deleted at any time without prior notice.
Dissemination of this information without the expressed written consent of the Public Affairs Office, Tulsa District U.S. Army Corps of Engineers is strictly prohibited.
These data are gathered electronically and, as presented, have not undergone any form of quality control. These data are not guaranteed to be valid or correct.
Go to home page.
Go to station list.

Upstream stations:

Downstream station:
Previous Day
Next Day
Current Day
    
SHEF ID:       TRLO2     Red Rv nr Terral, OK
STATION TYPE:  

               PRECIP     STAGE  RIV-FLOW   VOLTAGE  BAT-LOAD
                   in        ft       cfs      volt      volt
              Ccp-Rev   Ccp-Rev   Ccp-Rev   Ccp-Rev   Ccp-Rev
(US/Central)
01/03 00:00      0.00      6.89       363     13.00     12.60
01/03 01:00      0.00      6.91       370     13.00     12.54
01/03 02:00      0.00      6.93       377     13.00     12.54
01/03 03:00      0.00      6.94       381     13.00     12.48
01/03 04:00      0.00      6.95       384     12.90     12.48
01/03 05:00      0.00      6.96       388     12.90     12.42
01/03 06:00      0.00      6.95       384     12.90     12.42
01/03 07:00      0.00      6.95       384     12.90     12.42
01/03 08:00      0.00      6.94       381     12.90     12.42
01/03 09:00      0.00      6.93       377     15.10     12.42
01/03 10:00      0.00      6.86       353     14.90     13.53
01/03 11:00      0.00      6.78       326     15.00     14.71
01/03 12:00      0.00      6.76       319     14.70     14.59
01/03 13:00      0.00      6.80       332     14.70     14.30
01/03 14:00      0.00      6.84       346     14.50     14.06
01/03 15:00      0.00      6.81       336     14.40     14.12
01/03 16:00      0.00      6.94       381     14.50     14.06
01/03 17:00      0.00      7.04       417     14.50     14.06
01/03 18:00      0.00      7.14       455     13.30     13.24
01/03 19:00      0.00      7.18       471     13.20     12.83
01/03 20:00      0.00      7.21       483     13.20     12.77
01/03 21:00      0.00      7.23       491     13.20     12.71
01/03 22:00      0.00      7.23       491     13.10     12.65
01/03 23:00      0.00      7.23       491     13.10     12.65